Ekaterinburg, Russia
Current Conditions -  °F | °C
As of 5:00 PM on Friday 19 Dec 2014 (Local Time) from USSS Reporting Station
Overcast Overcast  
Wind Chill: 24°   Ceiling: 6700
Heat Index: 32°   Visibility: 6mi
Dew Point: 23°   Wind: 9mph
Humidity: 69%   Direction: 200°SSW
Pressure: 29.94"   Gusts: NA
Location:  56.83°N, 60.63°E
Report Text: USSS 191200Z 20004MPS 9999 FEW033 OVC067 M00/M05 Q1014 7629//37NOSIG RMK QFE740
Loading
Personal Weather Stations






























Interactive Weather Map New forecast layout! Learn more

10-Day Weather Forecast

Advertisements
Track Severe Weather on mobile